N360K KTEX-KLXV
Flight info
| Callsign | N360K |
|---|---|
| Flight time | 0h 32m |
| Altitude | 16000 |
| Route | SCRUB V361 MTJ/N0302F150 V361 DBL DAVVY |
| Aircraft | B350/L-SBGRW/S |
Departure
| Time | 2026-04-19 01:22 |
|---|---|
| Airport | Telluride Regional Airport (KTEX) |
Arrival
| Time | 2026-04-19 01:55 |
|---|---|
| Airport | Lake County Airport (KLXV) |
| Time | Latitude | Longitude | Altitude | Speed | Heading |
|---|---|---|---|---|---|
| 2026-04-19 01:14 | 37.95520 | -107.90169 | 9067 ft | 0 kts | 95° |
| 2026-04-19 01:19 | 37.95521 | -107.90166 | 9067 ft | 2 kts | 55° |
| 2026-04-19 01:19 | 37.95517 | -107.90206 | 9067 ft | 9 kts | 236° |
| 2026-04-19 01:19 | 37.95448 | -107.90241 | 9067 ft | 12 kts | 194° |
| 2026-04-19 01:19 | 37.95374 | -107.90253 | 9066 ft | 10 kts | 146° |
| 2026-04-19 01:20 | 37.95346 | -107.90161 | 9066 ft | 12 kts | 105° |
| 2026-04-19 01:20 | 37.95322 | -107.90052 | 9067 ft | 13 kts | 106° |
| 2026-04-19 01:20 | 37.95300 | -107.89947 | 9070 ft | 11 kts | 107° |
| 2026-04-19 01:20 | 37.95279 | -107.89853 | 9072 ft | 12 kts | 105° |
| 2026-04-19 01:21 | 37.95255 | -107.89747 | 9072 ft | 13 kts | 105° |
| 2026-04-19 01:21 | 37.95206 | -107.89667 | 9073 ft | 12 kts | 192° |
| 2026-04-19 01:21 | 37.95139 | -107.89725 | 9070 ft | 11 kts | 284° |
| 2026-04-19 01:21 | 37.95141 | -107.89733 | 9070 ft | 0 kts | 283° |
| 2026-04-19 01:22 | 37.95191 | -107.89976 | 9064 ft | 68 kts | 284° |
| 2026-04-19 01:22 | 37.95376 | -107.90839 | 9062 ft | 129 kts | 284° |
| 2026-04-19 01:22 | 37.95664 | -107.92039 | 9423 ft | 156 kts | 288° |
| 2026-04-19 01:22 | 37.96046 | -107.93440 | 9731 ft | 183 kts | 288° |
| 2026-04-19 01:23 | 37.96483 | -107.95001 | 10308 ft | 194 kts | 290° |
| 2026-04-19 01:23 | 37.97050 | -107.96618 | 10692 ft | 206 kts | 303° |
| 2026-04-19 01:23 | 37.98039 | -107.97874 | 11380 ft | 195 kts | 331° |
| 2026-04-19 01:23 | 37.98850 | -107.98246 | 11991 ft | 183 kts | 353° |
| 2026-04-19 01:24 | 38.00026 | -107.97907 | 12870 ft | 171 kts | 29° |
| 2026-04-19 01:24 | 38.01095 | -107.97279 | 13592 ft | 170 kts | 15° |
| 2026-04-19 01:24 | 38.02251 | -107.96897 | 14221 ft | 173 kts | 12° |
| 2026-04-19 01:24 | 38.03427 | -107.96525 | 14841 ft | 176 kts | 11° |
| 2026-04-19 01:25 | 38.04614 | -107.96147 | 15449 ft | 177 kts | 11° |
| 2026-04-19 01:25 | 38.05825 | -107.95771 | 15970 ft | 186 kts | 11° |
| 2026-04-19 01:25 | 38.07199 | -107.95343 | 16000 ft | 219 kts | 11° |
| 2026-04-19 01:25 | 38.08771 | -107.94842 | 16000 ft | 245 kts | 11° |
| 2026-04-19 01:26 | 38.10518 | -107.94527 | 16000 ft | 261 kts | 3° |
| 2026-04-19 01:26 | 38.12377 | -107.94348 | 15995 ft | 274 kts | 2° |
| 2026-04-19 01:26 | 38.14316 | -107.94142 | 15989 ft | 283 kts | 3° |
| 2026-04-19 01:26 | 38.16300 | -107.93903 | 15984 ft | 289 kts | 4° |
| 2026-04-19 01:27 | 38.18322 | -107.93664 | 15976 ft | 293 kts | 4° |
| 2026-04-19 01:27 | 38.20366 | -107.93429 | 15971 ft | 297 kts | 3° |
| 2026-04-19 01:27 | 38.22428 | -107.93195 | 15966 ft | 299 kts | 3° |
| 2026-04-19 01:27 | 38.24504 | -107.92954 | 15948 ft | 300 kts | 3° |
| 2026-04-19 01:28 | 38.26590 | -107.92712 | 15949 ft | 301 kts | 3° |
| 2026-04-19 01:28 | 38.28676 | -107.92471 | 15955 ft | 301 kts | 3° |
| 2026-04-19 01:28 | 38.30742 | -107.92233 | 15956 ft | 302 kts | 3° |
| 2026-04-19 01:28 | 38.32831 | -107.91990 | 15956 ft | 302 kts | 3° |
| 2026-04-19 01:29 | 38.34925 | -107.91749 | 15963 ft | 302 kts | 3° |
| 2026-04-19 01:29 | 38.37021 | -107.91507 | 15960 ft | 302 kts | 3° |
| 2026-04-19 01:29 | 38.39072 | -107.91267 | 16461 ft | 283 kts | 3° |
| 2026-04-19 01:29 | 38.40981 | -107.91047 | 16947 ft | 275 kts | 2° |
| 2026-04-19 01:30 | 38.42918 | -107.90826 | 16949 ft | 283 kts | 2° |
| 2026-04-19 01:30 | 38.44906 | -107.90595 | 16949 ft | 289 kts | 2° |
| 2026-04-19 01:30 | 38.46925 | -107.90359 | 16948 ft | 293 kts | 2° |
| 2026-04-19 01:30 | 38.48967 | -107.90121 | 16953 ft | 296 kts | 2° |
| 2026-04-19 01:31 | 38.51005 | -107.89693 | 16960 ft | 300 kts | 14° |
| 2026-04-19 01:31 | 38.52940 | -107.88669 | 16963 ft | 303 kts | 24° |
| 2026-04-19 01:31 | 38.54824 | -107.87438 | 16962 ft | 305 kts | 24° |
| 2026-04-19 01:31 | 38.56746 | -107.86263 | 16966 ft | 305 kts | 22° |
| 2026-04-19 01:32 | 38.58681 | -107.85148 | 16960 ft | 306 kts | 22° |
| 2026-04-19 01:32 | 38.60611 | -107.84009 | 16962 ft | 306 kts | 22° |
| 2026-04-19 01:32 | 38.62538 | -107.82847 | 16956 ft | 306 kts | 22° |
| 2026-04-19 01:32 | 38.64472 | -107.81687 | 16952 ft | 307 kts | 22° |
| 2026-04-19 01:33 | 38.66409 | -107.80541 | 16949 ft | 307 kts | 22° |
| 2026-04-19 01:33 | 38.68345 | -107.79386 | 16951 ft | 307 kts | 22° |
| 2026-04-19 01:33 | 38.70274 | -107.78224 | 16947 ft | 306 kts | 24° |
| 2026-04-19 01:33 | 38.72044 | -107.76760 | 16950 ft | 309 kts | 38° |
| 2026-04-19 01:34 | 38.73629 | -107.74832 | 16938 ft | 310 kts | 43° |
| 2026-04-19 01:34 | 38.75168 | -107.72897 | 16940 ft | 310 kts | 41° |
| 2026-04-19 01:34 | 38.76748 | -107.71019 | 16935 ft | 310 kts | 40° |
| 2026-04-19 01:34 | 38.78314 | -107.69170 | 16931 ft | 310 kts | 40° |
| 2026-04-19 01:35 | 38.79886 | -107.67279 | 16962 ft | 309 kts | 41° |
| 2026-04-19 01:35 | 38.81458 | -107.65387 | 16962 ft | 310 kts | 41° |
| 2026-04-19 01:35 | 38.83030 | -107.63502 | 16969 ft | 310 kts | 40° |
| 2026-04-19 01:35 | 38.84609 | -107.61610 | 16967 ft | 310 kts | 40° |
| 2026-04-19 01:36 | 38.86182 | -107.59716 | 16968 ft | 310 kts | 41° |
| 2026-04-19 01:36 | 38.87756 | -107.57825 | 16967 ft | 310 kts | 40° |
| 2026-04-19 01:36 | 38.89334 | -107.55927 | 16969 ft | 311 kts | 41° |
| 2026-04-19 01:36 | 38.90910 | -107.54025 | 16970 ft | 311 kts | 41° |
| 2026-04-19 01:37 | 38.92492 | -107.52124 | 16971 ft | 311 kts | 40° |
| 2026-04-19 01:37 | 38.94071 | -107.50225 | 16968 ft | 311 kts | 41° |
| 2026-04-19 01:37 | 38.95646 | -107.48321 | 16970 ft | 311 kts | 41° |
| 2026-04-19 01:37 | 38.97222 | -107.46415 | 16971 ft | 310 kts | 40° |
| 2026-04-19 01:38 | 38.98775 | -107.44542 | 16973 ft | 310 kts | 41° |
| 2026-04-19 01:38 | 39.00345 | -107.42646 | 16970 ft | 310 kts | 40° |
| 2026-04-19 01:38 | 39.01916 | -107.40746 | 16970 ft | 310 kts | 41° |
| 2026-04-19 01:38 | 39.03484 | -107.38846 | 16972 ft | 310 kts | 41° |
| 2026-04-19 01:39 | 39.05051 | -107.36949 | 16964 ft | 310 kts | 41° |
| 2026-04-19 01:39 | 39.06622 | -107.35046 | 16971 ft | 310 kts | 41° |
| 2026-04-19 01:39 | 39.08191 | -107.33142 | 16967 ft | 310 kts | 41° |
| 2026-04-19 01:39 | 39.09759 | -107.31239 | 16965 ft | 310 kts | 40° |
| 2026-04-19 01:40 | 39.11331 | -107.29332 | 16970 ft | 310 kts | 41° |
| 2026-04-19 01:40 | 39.12897 | -107.27430 | 16970 ft | 309 kts | 40° |
| 2026-04-19 01:40 | 39.14457 | -107.25541 | 16979 ft | 307 kts | 40° |
| 2026-04-19 01:40 | 39.16014 | -107.23643 | 16976 ft | 309 kts | 41° |
| 2026-04-19 01:41 | 39.17554 | -107.21751 | 16979 ft | 309 kts | 41° |
| 2026-04-19 01:41 | 39.19120 | -107.19851 | 16996 ft | 310 kts | 40° |
| 2026-04-19 01:41 | 39.20694 | -107.17948 | 16979 ft | 309 kts | 40° |
| 2026-04-19 01:41 | 39.22254 | -107.16037 | 16996 ft | 310 kts | 41° |
| 2026-04-19 01:42 | 39.23819 | -107.14117 | 16997 ft | 310 kts | 40° |
| 2026-04-19 01:42 | 39.25385 | -107.12215 | 17001 ft | 310 kts | 40° |
| 2026-04-19 01:42 | 39.28509 | -107.08394 | 17003 ft | 309 kts | 40° |
| 2026-04-19 01:43 | 39.30069 | -107.06484 | 17014 ft | 309 kts | 40° |
| 2026-04-19 01:43 | 39.31632 | -107.04572 | 17006 ft | 309 kts | 40° |
| 2026-04-19 01:43 | 39.33189 | -107.02661 | 17014 ft | 309 kts | 40° |
| 2026-04-19 01:43 | 39.34752 | -107.00746 | 17011 ft | 309 kts | 40° |
| 2026-04-19 01:44 | 39.36313 | -106.98833 | 17011 ft | 310 kts | 40° |
| 2026-04-19 01:44 | 39.37876 | -106.96917 | 17010 ft | 311 kts | 40° |
| 2026-04-19 01:44 | 39.39450 | -106.94983 | 17004 ft | 312 kts | 40° |
| 2026-04-19 01:44 | 39.41020 | -106.93051 | 17012 ft | 312 kts | 40° |
| 2026-04-19 01:45 | 39.42581 | -106.91099 | 17015 ft | 313 kts | 44° |
| 2026-04-19 01:45 | 39.43880 | -106.88817 | 17006 ft | 317 kts | 59° |
| 2026-04-19 01:45 | 39.44711 | -106.86168 | 17024 ft | 320 kts | 73° |
| 2026-04-19 01:45 | 39.45170 | -106.83374 | 17014 ft | 322 kts | 78° |
| 2026-04-19 01:46 | 39.45587 | -106.80491 | 17009 ft | 322 kts | 76° |
| 2026-04-19 01:46 | 39.46120 | -106.77721 | 17012 ft | 321 kts | 72° |
| 2026-04-19 01:46 | 39.46695 | -106.74926 | 17011 ft | 320 kts | 73° |
| 2026-04-19 01:46 | 39.47215 | -106.72126 | 17019 ft | 320 kts | 75° |
| 2026-04-19 01:47 | 39.47710 | -106.69377 | 17011 ft | 307 kts | 74° |
| 2026-04-19 01:47 | 39.48210 | -106.66741 | 17009 ft | 297 kts | 73° |
| 2026-04-19 01:47 | 39.48697 | -106.64176 | 17005 ft | 290 kts | 74° |
| 2026-04-19 01:47 | 39.49168 | -106.61658 | 17007 ft | 286 kts | 74° |
| 2026-04-19 01:48 | 39.49627 | -106.59176 | 17000 ft | 282 kts | 74° |
| 2026-04-19 01:48 | 39.50076 | -106.56746 | 16998 ft | 274 kts | 73° |
| 2026-04-19 01:48 | 39.50528 | -106.54354 | 16956 ft | 275 kts | 73° |
| 2026-04-19 01:48 | 39.50983 | -106.51946 | 16936 ft | 276 kts | 74° |
| 2026-04-19 01:49 | 39.51439 | -106.49460 | 16390 ft | 293 kts | 74° |
| 2026-04-19 01:49 | 39.51880 | -106.46884 | 16189 ft | 292 kts | 79° |
| 2026-04-19 01:49 | 39.51920 | -106.44261 | 15943 ft | 293 kts | 95° |
| 2026-04-19 01:49 | 39.51430 | -106.41699 | 15630 ft | 294 kts | 111° |
| 2026-04-19 01:50 | 39.50440 | -106.39384 | 15326 ft | 294 kts | 127° |
| 2026-04-19 01:50 | 39.49033 | -106.37486 | 15037 ft | 293 kts | 142° |
| 2026-04-19 01:50 | 39.47332 | -106.36138 | 14721 ft | 288 kts | 158° |
| 2026-04-19 01:50 | 39.45397 | -106.35394 | 14294 ft | 286 kts | 173° |
| 2026-04-19 01:51 | 39.43426 | -106.35277 | 13846 ft | 284 kts | 184° |
| 2026-04-19 01:51 | 39.41484 | -106.35351 | 13365 ft | 283 kts | 184° |
| 2026-04-19 01:51 | 39.39498 | -106.35327 | 12989 ft | 280 kts | 179° |
| 2026-04-19 01:51 | 39.37642 | -106.35122 | 12967 ft | 263 kts | 173° |
| 2026-04-19 01:52 | 39.35857 | -106.34700 | 12707 ft | 261 kts | 171° |
| 2026-04-19 01:52 | 39.34089 | -106.34287 | 12364 ft | 254 kts | 172° |
| 2026-04-19 01:52 | 39.32404 | -106.33919 | 12019 ft | 230 kts | 172° |
| 2026-04-19 01:52 | 39.30916 | -106.33597 | 11698 ft | 209 kts | 171° |
| 2026-04-19 01:53 | 39.29524 | -106.33296 | 11404 ft | 197 kts | 171° |
| 2026-04-19 01:53 | 39.28202 | -106.33006 | 11141 ft | 190 kts | 171° |
| 2026-04-19 01:53 | 39.26916 | -106.32724 | 10891 ft | 184 kts | 172° |
| 2026-04-19 01:53 | 39.25678 | -106.32453 | 10628 ft | 175 kts | 171° |
| 2026-04-19 01:54 | 39.24518 | -106.32202 | 10361 ft | 162 kts | 172° |
| 2026-04-19 01:54 | 39.23421 | -106.31965 | 10073 ft | 159 kts | 172° |
| 2026-04-19 01:54 | 39.22366 | -106.31735 | 9941 ft | 142 kts | 171° |
| 2026-04-19 01:54 | 39.21754 | -106.31603 | 9930 ft | 54 kts | 172° |
| 2026-04-19 01:55 | 39.21486 | -106.31553 | 9932 ft | 18 kts | 180° |
| 2026-04-19 01:55 | 39.21505 | -106.31549 | 9929 ft | 9 kts | 348° |
| 2026-04-19 01:55 | 39.21625 | -106.31575 | 9932 ft | 26 kts | 349° |
| 2026-04-19 01:55 | 39.21802 | -106.31613 | 9934 ft | 24 kts | 352° |
| 2026-04-19 01:56 | 39.21957 | -106.31645 | 9937 ft | 21 kts | 351° |
| 2026-04-19 01:56 | 39.22089 | -106.31675 | 9939 ft | 18 kts | 349° |
| 2026-04-19 01:56 | 39.22205 | -106.31698 | 9940 ft | 16 kts | 351° |
| 2026-04-19 01:56 | 39.22312 | -106.31722 | 9935 ft | 15 kts | 351° |
| 2026-04-19 01:57 | 39.22413 | -106.31743 | 9936 ft | 14 kts | 350° |
| 2026-04-19 01:57 | 39.22484 | -106.31715 | 9939 ft | 13 kts | 81° |
| 2026-04-19 01:57 | 39.22481 | -106.31638 | 9934 ft | 6 kts | 170° |
| 2026-04-19 01:57 | 39.22469 | -106.31636 | 9939 ft | 0 kts | 171° |